Badlands National Park, SD

11:04 AM MDT on July 24, 2016 (GMT -0600)
Cactus Flat | | Change Station

Elev 2530 ft 43.81 °N, 101.89 °W | Updated 2 seconds ago

Scattered Clouds
Scattered Clouds
75.0 °F
Feels Like 78 °F
N
0.4
Wind Variable Wind from WSW
Gusts 2.5 mph

Today
High -- | Low -- °F
--% Chance of Precip.
Yesterday
High -- | Low -- °F
Precip. -- in
Pressure 30.07 in
Visibility 10.0 miles
Clouds Scattered Clouds 11000 ft
Heat Index 78 °F
Dew Point 57 °F
Humidity 54%
Rainfall 0.23 in
Snow Depth Not available.
5:28 AM 8:19 PM
Waning Gibbous, 75% visible
METAR KPHP 241655Z AUTO 26006KT 10SM SCT110 25/13 A3012 RMK AO2 SLP183 T02500128
Pressure 30.07 in
Visibility 10.0 miles
Clouds Scattered Clouds 11000 ft
Heat Index 78 °F
Dew Point 57 °F
Humidity 54%
Rainfall 0.23 in
Snow Depth Not available.
5:28 AM 8:19 PM
Waning Gibbous, 75% visible
METAR KPHP 241655Z AUTO 26006KT 10SM SCT110 25/13 A3012 RMK AO2 SLP183 T02500128

10-Day Weather Forecast

Almanac

Astronomy

Jul. 24, 2016 Rise Set
Actual Time
Civil Twilight
Nautical Twilight
Astronomical Twilight
Moon
Length of Visible Light
Length of Day
Tomorrow will be .
, % of the Moon is Illuminated

Today's Extremes

State Highs State Lows

Community

WunderPhotos

Upload Photos

1,927,124 photos uploaded!

WunderBlog® & News

Nearby

Air Quality

  Air Quality AQ Index Pollutant
Not available.

Snow Depth

Station Depth Elevation

Earthquake Activity

City Distance Mag. Time & Date
Minimum magnitude displayed is 2.5.

Coastal Water Temperatures

Place Temperature

Stations

Nearby Weather Stations

Station Location Temp. Windchill Dew Point Humidity Wind Precip. Elev Updated Type
                   

Watches & Warnings

There are currently no watches in effect.